sensor_id;sensor_type;location;lat;lon;timestamp;P1;durP1;ratioP1;P2;durP2;ratioP2
56457;SDS011;42360;42.918;12.366;2022-11-13T00:00:56;6.43;;;3.70;;
56457;SDS011;42360;42.918;12.366;2022-11-13T00:03:22;6.38;;;5.72;;
56457;SDS011;42360;42.918;12.366;2022-11-13T00:05:57;6.97;;;4.03;;
56457;SDS011;42360;42.918;12.366;2022-11-13T00:08:26;3.13;;;2.83;;
56457;SDS011;42360;42.918;12.366;2022-11-13T00:10:51;5.32;;;3.17;;
56457;SDS011;42360;42.918;12.366;2022-11-13T00:13:23;3.85;;;2.67;;
56457;SDS011;42360;42.918;12.366;2022-11-13T00:15:58;5.82;;;2.90;;
56457;SDS011;42360;42.918;12.366;2022-11-13T00:18:25;4.20;;;2.25;;
56457;SDS011;42360;42.918;12.366;2022-11-13T00:20:50;3.67;;;2.50;;
56457;SDS011;42360;42.918;12.366;2022-11-13T00:23:16;2.92;;;2.47;;
56457;SDS011;42360;42.918;12.366;2022-11-13T00:25:42;3.78;;;2.42;;
56457;SDS011;42360;42.918;12.366;2022-11-13T00:28:07;3.83;;;2.38;;
56457;SDS011;42360;42.918;12.366;2022-11-13T00:30:33;5.35;;;2.85;;
56457;SDS011;42360;42.918;12.366;2022-11-13T00:32:58;4.60;;;2.72;;
56457;SDS011;42360;42.918;12.366;2022-11-13T00:35:24;2.72;;;2.50;;
56457;SDS011;42360;42.918;12.366;2022-11-13T00:37:50;4.28;;;2.45;;
56457;SDS011;42360;42.918;12.366;2022-11-13T00:40:15;3.53;;;2.40;;
56457;SDS011;42360;42.918;12.366;2022-11-13T00:42:41;5.18;;;2.83;;
56457;SDS011;42360;42.918;12.366;2022-11-13T00:45:07;4.78;;;2.83;;
56457;SDS011;42360;42.918;12.366;2022-11-13T00:47:33;5.25;;;2.80;;
56457;SDS011;42360;42.918;12.366;2022-11-13T00:49:59;3.55;;;2.13;;
56457;SDS011;42360;42.918;12.366;2022-11-13T00:52:25;4.35;;;2.25;;
56457;SDS011;42360;42.918;12.366;2022-11-13T00:54:51;4.40;;;2.95;;
56457;SDS011;42360;42.918;12.366;2022-11-13T00:57:16;4.47;;;2.78;;
56457;SDS011;42360;42.918;12.366;2022-11-13T00:59:42;7.22;;;2.50;;
56457;SDS011;42360;42.918;12.366;2022-11-13T01:02:08;3.65;;;2.58;;
56457;SDS011;42360;42.918;12.366;2022-11-13T01:04:34;4.82;;;3.03;;
56457;SDS011;42360;42.918;12.366;2022-11-13T01:07:00;5.25;;;3.10;;
56457;SDS011;42360;42.918;12.366;2022-11-13T01:09:25;4.43;;;2.90;;
56457;SDS011;42360;42.918;12.366;2022-11-13T01:11:51;4.35;;;2.90;;
56457;SDS011;42360;42.918;12.366;2022-11-13T01:14:16;4.55;;;3.03;;
56457;SDS011;42360;42.918;12.366;2022-11-13T01:16:42;6.68;;;3.70;;
56457;SDS011;42360;42.918;12.366;2022-11-13T01:19:08;5.78;;;3.47;;
56457;SDS011;42360;42.918;12.366;2022-11-13T01:21:33;7.55;;;3.05;;
56457;SDS011;42360;42.918;12.366;2022-11-13T01:23:59;5.43;;;3.20;;
56457;SDS011;42360;42.918;12.366;2022-11-13T01:26:26;4.88;;;3.20;;
56457;SDS011;42360;42.918;12.366;2022-11-13T01:28:53;5.63;;;3.35;;
56457;SDS011;42360;42.918;12.366;2022-11-13T01:31:21;4.43;;;2.92;;
56457;SDS011;42360;42.918;12.366;2022-11-13T01:33:48;5.22;;;3.42;;
56457;SDS011;42360;42.918;12.366;2022-11-13T01:36:18;9.27;;;4.15;;
56457;SDS011;42360;42.918;12.366;2022-11-13T01:38:46;6.50;;;3.83;;
56457;SDS011;42360;42.918;12.366;2022-11-13T01:41:17;5.13;;;3.75;;
56457;SDS011;42360;42.918;12.366;2022-11-13T01:43:44;6.18;;;3.35;;
56457;SDS011;42360;42.918;12.366;2022-11-13T01:48:46;6.65;;;4.00;;
56457;SDS011;42360;42.918;12.366;2022-11-13T01:51:17;5.82;;;3.40;;
56457;SDS011;42360;42.918;12.366;2022-11-13T01:53:47;4.53;;;2.97;;
56457;SDS011;42360;42.918;12.366;2022-11-13T01:56:13;5.93;;;2.85;;
56457;SDS011;42360;42.918;12.366;2022-11-13T01:58:39;10.25;;;4.07;;
56457;SDS011;42360;42.918;12.366;2022-11-13T02:01:07;7.85;;;3.38;;
56457;SDS011;42360;42.918;12.366;2022-11-13T02:03:32;6.20;;;4.00;;
56457;SDS011;42360;42.918;12.366;2022-11-13T02:05:58;7.88;;;3.78;;
56457;SDS011;42360;42.918;12.366;2022-11-13T02:08:24;5.28;;;3.28;;
56457;SDS011;42360;42.918;12.366;2022-11-13T02:10:49;4.18;;;2.88;;
56457;SDS011;42360;42.918;12.366;2022-11-13T02:13:15;6.30;;;3.63;;
56457;SDS011;42360;42.918;12.366;2022-11-13T02:15:41;4.57;;;2.92;;
56457;SDS011;42360;42.918;12.366;2022-11-13T02:18:07;5.38;;;2.97;;
56457;SDS011;42360;42.918;12.366;2022-11-13T02:20:48;4.28;;;2.80;;
56457;SDS011;42360;42.918;12.366;2022-11-13T02:23:24;5.40;;;2.58;;
56457;SDS011;42360;42.918;12.366;2022-11-13T02:26:00;5.72;;;3.33;;
56457;SDS011;42360;42.918;12.366;2022-11-13T02:28:26;4.63;;;2.40;;
56457;SDS011;42360;42.918;12.366;2022-11-13T02:30:52;5.43;;;3.15;;
56457;SDS011;42360;42.918;12.366;2022-11-13T02:33:31;7.10;;;2.80;;
56457;SDS011;42360;42.918;12.366;2022-11-13T02:35:57;6.70;;;3.13;;
56457;SDS011;42360;42.918;12.366;2022-11-13T02:38:23;5.13;;;2.95;;
56457;SDS011;42360;42.918;12.366;2022-11-13T02:40:48;5.03;;;3.22;;
56457;SDS011;42360;42.918;12.366;2022-11-13T02:43:14;6.78;;;3.30;;
56457;SDS011;42360;42.918;12.366;2022-11-13T02:45:39;3.67;;;2.78;;
56457;SDS011;42360;42.918;12.366;2022-11-13T02:48:05;6.57;;;3.60;;
56457;SDS011;42360;42.918;12.366;2022-11-13T02:50:32;4.53;;;2.80;;
56457;SDS011;42360;42.918;12.366;2022-11-13T02:52:58;4.18;;;3.08;;
56457;SDS011;42360;42.918;12.366;2022-11-13T02:55:24;4.90;;;2.80;;
56457;SDS011;42360;42.918;12.366;2022-11-13T02:57:50;5.07;;;2.40;;
56457;SDS011;42360;42.918;12.366;2022-11-13T03:00:16;5.55;;;2.70;;
56457;SDS011;42360;42.918;12.366;2022-11-13T03:02:42;6.47;;;2.70;;
56457;SDS011;42360;42.918;12.366;2022-11-13T03:05:08;6.40;;;3.75;;
56457;SDS011;42360;42.918;12.366;2022-11-13T03:07:33;4.90;;;2.53;;
56457;SDS011;42360;42.918;12.366;2022-11-13T03:09:59;5.20;;;2.92;;
56457;SDS011;42360;42.918;12.366;2022-11-13T03:12:25;5.35;;;3.72;;
56457;SDS011;42360;42.918;12.366;2022-11-13T03:14:50;6.13;;;3.05;;
56457;SDS011;42360;42.918;12.366;2022-11-13T03:17:16;5.25;;;2.60;;
56457;SDS011;42360;42.918;12.366;2022-11-13T03:19:42;4.50;;;2.63;;
56457;SDS011;42360;42.918;12.366;2022-11-13T03:22:07;5.20;;;3.13;;
56457;SDS011;42360;42.918;12.366;2022-11-13T03:24:33;4.40;;;2.78;;
56457;SDS011;42360;42.918;12.366;2022-11-13T03:26:58;4.97;;;3.30;;
56457;SDS011;42360;42.918;12.366;2022-11-13T03:29:24;5.22;;;2.75;;
56457;SDS011;42360;42.918;12.366;2022-11-13T03:31:50;5.90;;;3.10;;
56457;SDS011;42360;42.918;12.366;2022-11-13T03:34:16;5.20;;;3.03;;
56457;SDS011;42360;42.918;12.366;2022-11-13T03:36:41;7.20;;;3.30;;
56457;SDS011;42360;42.918;12.366;2022-11-13T03:39:07;7.47;;;3.15;;
56457;SDS011;42360;42.918;12.366;2022-11-13T03:41:32;7.50;;;2.70;;
56457;SDS011;42360;42.918;12.366;2022-11-13T03:43:58;5.35;;;3.85;;
56457;SDS011;42360;42.918;12.366;2022-11-13T03:46:24;4.75;;;2.90;;
56457;SDS011;42360;42.918;12.366;2022-11-13T03:48:49;6.00;;;3.13;;
56457;SDS011;42360;42.918;12.366;2022-11-13T03:51:15;6.50;;;2.55;;
56457;SDS011;42360;42.918;12.366;2022-11-13T03:53:40;4.57;;;2.95;;
56457;SDS011;42360;42.918;12.366;2022-11-13T03:56:06;7.22;;;3.35;;
56457;SDS011;42360;42.918;12.366;2022-11-13T03:58:32;6.25;;;3.50;;
56457;SDS011;42360;42.918;12.366;2022-11-13T04:00:57;5.43;;;3.42;;
56457;SDS011;42360;42.918;12.366;2022-11-13T04:03:23;4.80;;;2.75;;
56457;SDS011;42360;42.918;12.366;2022-11-13T04:05:49;4.97;;;2.90;;
56457;SDS011;42360;42.918;12.366;2022-11-13T04:08:16;3.53;;;2.17;;
56457;SDS011;42360;42.918;12.366;2022-11-13T04:10:42;5.28;;;2.92;;
56457;SDS011;42360;42.918;12.366;2022-11-13T04:13:08;4.63;;;2.45;;
56457;SDS011;42360;42.918;12.366;2022-11-13T04:15:34;4.90;;;2.40;;
56457;SDS011;42360;42.918;12.366;2022-11-13T04:18:00;4.80;;;3.47;;
56457;SDS011;42360;42.918;12.366;2022-11-13T04:20:32;4.60;;;2.55;;
56457;SDS011;42360;42.918;12.366;2022-11-13T04:23:05;4.47;;;2.08;;
56457;SDS011;42360;42.918;12.366;2022-11-13T04:25:35;3.78;;;2.22;;
56457;SDS011;42360;42.918;12.366;2022-11-13T04:28:01;2.83;;;2.47;;
56457;SDS011;42360;42.918;12.366;2022-11-13T04:30:26;3.08;;;2.17;;
56457;SDS011;42360;42.918;12.366;2022-11-13T04:32:52;5.25;;;2.83;;
56457;SDS011;42360;42.918;12.366;2022-11-13T04:35:18;4.25;;;2.83;;
56457;SDS011;42360;42.918;12.366;2022-11-13T04:37:44;4.30;;;2.22;;
56457;SDS011;42360;42.918;12.366;2022-11-13T04:40:09;3.78;;;2.55;;
56457;SDS011;42360;42.918;12.366;2022-11-13T04:42:35;3.35;;;2.35;;
56457;SDS011;42360;42.918;12.366;2022-11-13T04:45:14;5.70;;;2.83;;
56457;SDS011;42360;42.918;12.366;2022-11-13T04:47:41;4.63;;;3.20;;
56457;SDS011;42360;42.918;12.366;2022-11-13T04:50:06;5.50;;;3.20;;
56457;SDS011;42360;42.918;12.366;2022-11-13T04:52:32;4.32;;;2.88;;
56457;SDS011;42360;42.918;12.366;2022-11-13T04:54:58;6.05;;;3.10;;
56457;SDS011;42360;42.918;12.366;2022-11-13T04:57:24;3.80;;;2.75;;
56457;SDS011;42360;42.918;12.366;2022-11-13T04:59:49;7.10;;;3.35;;
56457;SDS011;42360;42.918;12.366;2022-11-13T05:02:15;5.95;;;3.47;;
56457;SDS011;42360;42.918;12.366;2022-11-13T05:04:40;4.72;;;3.60;;
56457;SDS011;42360;42.918;12.366;2022-11-13T05:07:06;6.57;;;3.00;;
56457;SDS011;42360;42.918;12.366;2022-11-13T05:09:32;5.13;;;2.85;;
56457;SDS011;42360;42.918;12.366;2022-11-13T05:11:57;3.33;;;2.60;;
56457;SDS011;42360;42.918;12.366;2022-11-13T05:14:23;3.47;;;2.30;;
56457;SDS011;42360;42.918;12.366;2022-11-13T05:16:48;4.70;;;2.60;;
56457;SDS011;42360;42.918;12.366;2022-11-13T05:19:15;4.53;;;3.03;;
56457;SDS011;42360;42.918;12.366;2022-11-13T05:21:41;4.38;;;3.15;;
56457;SDS011;42360;42.918;12.366;2022-11-13T05:24:09;3.67;;;2.75;;
56457;SDS011;42360;42.918;12.366;2022-11-13T05:26:38;3.80;;;2.58;;
56457;SDS011;42360;42.918;12.366;2022-11-13T05:29:04;2.67;;;2.38;;
56457;SDS011;42360;42.918;12.366;2022-11-13T05:31:30;2.35;;;2.10;;
56457;SDS011;42360;42.918;12.366;2022-11-13T05:33:56;3.83;;;2.20;;
56457;SDS011;42360;42.918;12.366;2022-11-13T05:36:21;3.00;;;2.58;;
56457;SDS011;42360;42.918;12.366;2022-11-13T05:38:47;6.05;;;2.60;;
56457;SDS011;42360;42.918;12.366;2022-11-13T05:41:15;3.58;;;2.65;;
56457;SDS011;42360;42.918;12.366;2022-11-13T05:43:42;5.07;;;2.83;;
56457;SDS011;42360;42.918;12.366;2022-11-13T05:46:12;4.88;;;2.92;;
56457;SDS011;42360;42.918;12.366;2022-11-13T05:48:39;5.15;;;3.00;;
56457;SDS011;42360;42.918;12.366;2022-11-13T05:51:06;3.92;;;2.88;;
56457;SDS011;42360;42.918;12.366;2022-11-13T05:53:33;3.03;;;2.10;;
56457;SDS011;42360;42.918;12.366;2022-11-13T05:56:06;4.65;;;3.00;;
56457;SDS011;42360;42.918;12.366;2022-11-13T05:58:37;3.47;;;2.42;;
56457;SDS011;42360;42.918;12.366;2022-11-13T06:01:08;4.45;;;2.70;;
56457;SDS011;42360;42.918;12.366;2022-11-13T06:03:47;3.65;;;2.40;;
56457;SDS011;42360;42.918;12.366;2022-11-13T06:06:14;3.72;;;2.58;;
56457;SDS011;42360;42.918;12.366;2022-11-13T06:08:42;3.83;;;2.50;;
56457;SDS011;42360;42.918;12.366;2022-11-13T06:11:09;4.97;;;2.75;;
56457;SDS011;42360;42.918;12.366;2022-11-13T06:13:39;4.60;;;3.13;;
56457;SDS011;42360;42.918;12.366;2022-11-13T06:16:06;4.30;;;2.95;;
56457;SDS011;42360;42.918;12.366;2022-11-13T06:18:41;5.03;;;2.67;;
56457;SDS011;42360;42.918;12.366;2022-11-13T06:21:14;5.63;;;3.45;;
56457;SDS011;42360;42.918;12.366;2022-11-13T06:23:42;3.03;;;2.22;;
56457;SDS011;42360;42.918;12.366;2022-11-13T06:26:08;4.85;;;3.03;;
56457;SDS011;42360;42.918;12.366;2022-11-13T06:28:36;4.22;;;2.83;;
56457;SDS011;42360;42.918;12.366;2022-11-13T06:31:08;4.72;;;2.30;;
56457;SDS011;42360;42.918;12.366;2022-11-13T06:33:36;3.30;;;2.95;;
56457;SDS011;42360;42.918;12.366;2022-11-13T06:36:03;4.25;;;2.47;;
56457;SDS011;42360;42.918;12.366;2022-11-13T06:38:33;3.92;;;3.00;;
56457;SDS011;42360;42.918;12.366;2022-11-13T06:41:00;4.07;;;3.15;;
56457;SDS011;42360;42.918;12.366;2022-11-13T06:43:27;4.20;;;3.08;;
56457;SDS011;42360;42.918;12.366;2022-11-13T06:45:53;4.57;;;2.95;;
56457;SDS011;42360;42.918;12.366;2022-11-13T06:48:19;4.13;;;2.72;;
56457;SDS011;42360;42.918;12.366;2022-11-13T06:50:44;5.28;;;2.97;;
56457;SDS011;42360;42.918;12.366;2022-11-13T06:53:10;7.95;;;4.03;;
56457;SDS011;42360;42.918;12.366;2022-11-13T06:55:41;8.27;;;4.05;;
56457;SDS011;42360;42.918;12.366;2022-11-13T06:58:08;6.88;;;3.67;;
56457;SDS011;42360;42.918;12.366;2022-11-13T07:00:33;7.10;;;4.40;;
56457;SDS011;42360;42.918;12.366;2022-11-13T07:02:59;8.27;;;4.35;;
56457;SDS011;42360;42.918;12.366;2022-11-13T07:05:24;6.32;;;3.53;;
56457;SDS011;42360;42.918;12.366;2022-11-13T07:07:51;6.95;;;3.92;;
56457;SDS011;42360;42.918;12.366;2022-11-13T07:10:16;4.65;;;3.78;;
56457;SDS011;42360;42.918;12.366;2022-11-13T07:12:42;3.53;;;2.28;;
56457;SDS011;42360;42.918;12.366;2022-11-13T07:15:08;6.32;;;2.65;;
56457;SDS011;42360;42.918;12.366;2022-11-13T07:17:34;5.00;;;2.75;;
56457;SDS011;42360;42.918;12.366;2022-11-13T07:19:59;4.60;;;2.67;;
56457;SDS011;42360;42.918;12.366;2022-11-13T07:22:26;4.72;;;2.75;;
56457;SDS011;42360;42.918;12.366;2022-11-13T07:24:53;5.25;;;2.85;;
56457;SDS011;42360;42.918;12.366;2022-11-13T07:27:18;4.35;;;3.35;;
56457;SDS011;42360;42.918;12.366;2022-11-13T07:29:44;7.18;;;3.22;;
56457;SDS011;42360;42.918;12.366;2022-11-13T07:32:09;6.97;;;3.42;;
56457;SDS011;42360;42.918;12.366;2022-11-13T07:34:35;2.65;;;1.48;;
56457;SDS011;42360;42.918;12.366;2022-11-13T07:37:00;3.78;;;2.88;;
56457;SDS011;42360;42.918;12.366;2022-11-13T07:39:27;7.13;;;2.75;;
56457;SDS011;42360;42.918;12.366;2022-11-13T07:41:52;3.60;;;2.67;;
56457;SDS011;42360;42.918;12.366;2022-11-13T07:44:18;5.45;;;2.97;;
56457;SDS011;42360;42.918;12.366;2022-11-13T07:46:43;3.90;;;2.60;;
56457;SDS011;42360;42.918;12.366;2022-11-13T07:49:09;5.22;;;2.40;;
56457;SDS011;42360;42.918;12.366;2022-11-13T07:51:35;2.88;;;2.33;;
56457;SDS011;42360;42.918;12.366;2022-11-13T07:54:00;4.28;;;3.30;;
56457;SDS011;42360;42.918;12.366;2022-11-13T07:56:26;6.22;;;3.40;;
56457;SDS011;42360;42.918;12.366;2022-11-13T07:58:51;4.43;;;3.22;;
56457;SDS011;42360;42.918;12.366;2022-11-13T08:01:17;5.45;;;3.80;;
56457;SDS011;42360;42.918;12.366;2022-11-13T08:03:42;4.55;;;2.80;;
56457;SDS011;42360;42.918;12.366;2022-11-13T08:06:08;5.88;;;4.03;;
56457;SDS011;42360;42.918;12.366;2022-11-13T08:08:34;4.95;;;3.63;;
56457;SDS011;42360;42.918;12.366;2022-11-13T08:11:04;4.38;;;3.17;;
56457;SDS011;42360;42.918;12.366;2022-11-13T08:13:30;4.93;;;3.22;;
56457;SDS011;42360;42.918;12.366;2022-11-13T08:16:00;3.90;;;2.75;;
56457;SDS011;42360;42.918;12.366;2022-11-13T08:18:27;5.72;;;3.33;;
56457;SDS011;42360;42.918;12.366;2022-11-13T08:20:53;5.78;;;3.88;;
56457;SDS011;42360;42.918;12.366;2022-11-13T08:23:19;6.22;;;3.80;;
56457;SDS011;42360;42.918;12.366;2022-11-13T08:25:45;5.32;;;3.78;;
56457;SDS011;42360;42.918;12.366;2022-11-13T08:28:10;4.95;;;3.53;;
56457;SDS011;42360;42.918;12.366;2022-11-13T08:30:36;5.35;;;3.20;;
56457;SDS011;42360;42.918;12.366;2022-11-13T08:33:02;7.30;;;4.38;;
56457;SDS011;42360;42.918;12.366;2022-11-13T08:35:28;6.78;;;4.63;;
56457;SDS011;42360;42.918;12.366;2022-11-13T08:37:53;7.15;;;4.65;;
56457;SDS011;42360;42.918;12.366;2022-11-13T08:40:19;6.25;;;4.25;;
56457;SDS011;42360;42.918;12.366;2022-11-13T08:42:45;7.25;;;4.45;;
56457;SDS011;42360;42.918;12.366;2022-11-13T08:45:10;5.50;;;4.13;;
56457;SDS011;42360;42.918;12.366;2022-11-13T08:47:36;5.57;;;4.25;;
56457;SDS011;42360;42.918;12.366;2022-11-13T08:50:03;8.02;;;4.40;;
56457;SDS011;42360;42.918;12.366;2022-11-13T08:52:29;6.57;;;4.57;;
56457;SDS011;42360;42.918;12.366;2022-11-13T08:54:54;7.85;;;4.68;;
56457;SDS011;42360;42.918;12.366;2022-11-13T08:57:20;5.03;;;3.75;;
56457;SDS011;42360;42.918;12.366;2022-11-13T08:59:46;5.93;;;4.10;;
56457;SDS011;42360;42.918;12.366;2022-11-13T09:02:12;7.45;;;4.47;;
56457;SDS011;42360;42.918;12.366;2022-11-13T09:04:38;8.88;;;6.13;;
56457;SDS011;42360;42.918;12.366;2022-11-13T09:07:04;7.50;;;5.13;;
56457;SDS011;42360;42.918;12.366;2022-11-13T09:09:30;6.00;;;4.38;;
56457;SDS011;42360;42.918;12.366;2022-11-13T09:11:55;5.53;;;3.80;;
56457;SDS011;42360;42.918;12.366;2022-11-13T09:14:21;6.88;;;4.10;;
56457;SDS011;42360;42.918;12.366;2022-11-13T09:16:46;4.03;;;3.60;;
56457;SDS011;42360;42.918;12.366;2022-11-13T09:19:12;7.07;;;3.47;;
56457;SDS011;42360;42.918;12.366;2022-11-13T09:21:37;6.88;;;4.03;;
56457;SDS011;42360;42.918;12.366;2022-11-13T09:24:03;6.90;;;3.95;;
56457;SDS011;42360;42.918;12.366;2022-11-13T09:26:30;5.22;;;3.83;;
56457;SDS011;42360;42.918;12.366;2022-11-13T09:28:56;6.47;;;3.80;;
56457;SDS011;42360;42.918;12.366;2022-11-13T09:31:21;5.45;;;3.55;;
56457;SDS011;42360;42.918;12.366;2022-11-13T09:33:47;5.22;;;3.60;;
56457;SDS011;42360;42.918;12.366;2022-11-13T09:36:13;8.10;;;4.55;;
56457;SDS011;42360;42.918;12.366;2022-11-13T09:38:40;5.95;;;4.28;;
56457;SDS011;42360;42.918;12.366;2022-11-13T09:44:11;5.30;;;3.50;;
56457;SDS011;42360;42.918;12.366;2022-11-13T09:49:14;5.35;;;3.63;;
56457;SDS011;42360;42.918;12.366;2022-11-13T09:51:44;7.28;;;3.83;;
56457;SDS011;42360;42.918;12.366;2022-11-13T09:54:33;5.65;;;3.40;;
56457;SDS011;42360;42.918;12.366;2022-11-13T09:59:51;5.28;;;3.45;;
56457;SDS011;42360;42.918;12.366;2022-11-13T10:08:06;4.95;;;3.55;;
56457;SDS011;42360;42.918;12.366;2022-11-13T10:14:00;4.30;;;2.95;;
56457;SDS011;42360;42.918;12.366;2022-11-13T10:16:56;4.78;;;3.47;;
56457;SDS011;42360;42.918;12.366;2022-11-13T10:19:11;4.15;;;3.00;;
56457;SDS011;42360;42.918;12.366;2022-11-13T10:21:49;3.72;;;2.97;;
56457;SDS011;42360;42.918;12.366;2022-11-13T10:24:24;3.65;;;3.10;;
56457;SDS011;42360;42.918;12.366;2022-11-13T10:26:53;4.43;;;3.53;;
56457;SDS011;42360;42.918;12.366;2022-11-13T10:29:20;10.15;;;7.10;;
56457;SDS011;42360;42.918;12.366;2022-11-13T10:31:49;10.82;;;7.85;;
56457;SDS011;42360;42.918;12.366;2022-11-13T10:34:16;9.05;;;8.15;;
56457;SDS011;42360;42.918;12.366;2022-11-13T10:39:45;12.73;;;10.77;;
56457;SDS011;42360;42.918;12.366;2022-11-13T10:42:21;12.77;;;11.68;;
56457;SDS011;42360;42.918;12.366;2022-11-13T10:45:00;7.63;;;6.93;;
56457;SDS011;42360;42.918;12.366;2022-11-13T10:47:30;11.15;;;9.88;;
56457;SDS011;42360;42.918;12.366;2022-11-13T10:49:56;14.57;;;12.90;;
56457;SDS011;42360;42.918;12.366;2022-11-13T10:52:53;7.15;;;5.10;;
56457;SDS011;42360;42.918;12.366;2022-11-13T10:55:21;4.20;;;3.80;;
56457;SDS011;42360;42.918;12.366;2022-11-13T10:57:58;4.40;;;3.35;;
56457;SDS011;42360;42.918;12.366;2022-11-13T11:00:33;7.60;;;5.68;;
56457;SDS011;42360;42.918;12.366;2022-11-13T11:03:00;8.57;;;6.00;;
56457;SDS011;42360;42.918;12.366;2022-11-13T11:05:26;4.78;;;3.78;;
56457;SDS011;42360;42.918;12.366;2022-11-13T11:07:53;3.85;;;3.45;;
56457;SDS011;42360;42.918;12.366;2022-11-13T11:12:58;3.58;;;2.95;;
56457;SDS011;42360;42.918;12.366;2022-11-13T11:15:45;3.38;;;2.85;;
56457;SDS011;42360;42.918;12.366;2022-11-13T11:21:00;3.03;;;2.42;;
56457;SDS011;42360;42.918;12.366;2022-11-13T11:37:17;6.10;;;4.10;;
56457;SDS011;42360;42.918;12.366;2022-11-13T11:39:48;4.97;;;3.58;;
56457;SDS011;42360;42.918;12.366;2022-11-13T11:42:29;3.45;;;3.15;;
56457;SDS011;42360;42.918;12.366;2022-11-13T11:45:00;5.13;;;3.47;;
56457;SDS011;42360;42.918;12.366;2022-11-13T11:47:46;5.05;;;3.33;;
56457;SDS011;42360;42.918;12.366;2022-11-13T11:50:13;4.35;;;2.90;;
56457;SDS011;42360;42.918;12.366;2022-11-13T11:55:23;3.92;;;3.17;;
56457;SDS011;42360;42.918;12.366;2022-11-13T11:58:14;2.72;;;2.53;;
56457;SDS011;42360;42.918;12.366;2022-11-13T12:00:48;3.50;;;3.10;;
56457;SDS011;42360;42.918;12.366;2022-11-13T12:14:27;4.20;;;2.60;;
56457;SDS011;42360;42.918;12.366;2022-11-13T12:20:04;4.63;;;2.97;;
56457;SDS011;42360;42.918;12.366;2022-11-13T12:25:34;4.40;;;2.70;;
56457;SDS011;42360;42.918;12.366;2022-11-13T12:33:17;3.95;;;2.72;;
56457;SDS011;42360;42.918;12.366;2022-11-13T12:35:48;3.70;;;3.33;;
56457;SDS011;42360;42.918;12.366;2022-11-13T12:46:39;3.67;;;3.25;;
56457;SDS011;42360;42.918;12.366;2022-11-13T12:52:11;3.42;;;2.88;;
56457;SDS011;42360;42.918;12.366;2022-11-13T12:59:49;4.28;;;3.00;;
56457;SDS011;42360;42.918;12.366;2022-11-13T13:02:21;3.55;;;3.20;;
56457;SDS011;42360;42.918;12.366;2022-11-13T13:05:27;4.88;;;2.60;;
56457;SDS011;42360;42.918;12.366;2022-11-13T13:10:48;6.68;;;3.28;;
56457;SDS011;42360;42.918;12.366;2022-11-13T13:15:55;3.63;;;2.30;;
56457;SDS011;42360;42.918;12.366;2022-11-13T13:23:31;3.38;;;3.05;;
56457;SDS011;42360;42.918;12.366;2022-11-13T13:26:11;3.33;;;3.03;;
56457;SDS011;42360;42.918;12.366;2022-11-13T13:33:50;2.20;;;2.00;;
56457;SDS011;42360;42.918;12.366;2022-11-13T13:36:29;2.80;;;2.00;;
56457;SDS011;42360;42.918;12.366;2022-11-13T13:42:24;3.05;;;2.25;;
56457;SDS011;42360;42.918;12.366;2022-11-13T13:47:36;2.75;;;1.90;;
56457;SDS011;42360;42.918;12.366;2022-11-13T13:50:07;3.85;;;2.75;;
56457;SDS011;42360;42.918;12.366;2022-11-13T13:52:38;6.40;;;4.32;;
56457;SDS011;42360;42.918;12.366;2022-11-13T13:55:05;3.38;;;2.85;;
56457;SDS011;42360;42.918;12.366;2022-11-13T13:57:31;3.22;;;2.85;;
56457;SDS011;42360;42.918;12.366;2022-11-13T13:59:58;4.50;;;4.10;;
56457;SDS011;42360;42.918;12.366;2022-11-13T14:02:24;3.35;;;3.05;;
56457;SDS011;42360;42.918;12.366;2022-11-13T14:04:51;3.15;;;2.17;;
56457;SDS011;42360;42.918;12.366;2022-11-13T14:07:20;3.42;;;2.25;;
56457;SDS011;42360;42.918;12.366;2022-11-13T14:12:42;3.40;;;2.30;;
56457;SDS011;42360;42.918;12.366;2022-11-13T14:15:28;4.00;;;3.20;;
56457;SDS011;42360;42.918;12.366;2022-11-13T14:18:07;2.70;;;2.40;;
56457;SDS011;42360;42.918;12.366;2022-11-13T14:20:54;1.90;;;1.80;;
56457;SDS011;42360;42.918;12.366;2022-11-13T14:23:24;1.70;;;1.30;;
56457;SDS011;42360;42.918;12.366;2022-11-13T14:26:10;2.15;;;1.90;;
56457;SDS011;42360;42.918;12.366;2022-11-13T14:28:51;2.42;;;2.22;;
56457;SDS011;42360;42.918;12.366;2022-11-13T14:31:29;3.08;;;1.80;;
56457;SDS011;42360;42.918;12.366;2022-11-13T14:34:00;3.30;;;2.58;;
56457;SDS011;42360;42.918;12.366;2022-11-13T14:36:32;3.47;;;3.17;;
56457;SDS011;42360;42.918;12.366;2022-11-13T14:38:58;16.55;;;10.48;;
56457;SDS011;42360;42.918;12.366;2022-11-13T14:41:35;16.23;;;10.18;;
56457;SDS011;42360;42.918;12.366;2022-11-13T14:44:08;10.88;;;7.63;;
56457;SDS011;42360;42.918;12.366;2022-11-13T14:46:35;4.57;;;3.83;;
56457;SDS011;42360;42.918;12.366;2022-11-13T14:49:02;3.90;;;2.85;;
56457;SDS011;42360;42.918;12.366;2022-11-13T14:51:29;4.88;;;2.90;;
56457;SDS011;42360;42.918;12.366;2022-11-13T14:54:03;3.22;;;2.78;;
56457;SDS011;42360;42.918;12.366;2022-11-13T14:56:31;8.85;;;3.53;;
56457;SDS011;42360;42.918;12.366;2022-11-13T14:59:07;3.40;;;3.08;;
56457;SDS011;42360;42.918;12.366;2022-11-13T15:04:00;3.63;;;3.20;;
56457;SDS011;42360;42.918;12.366;2022-11-13T15:06:31;3.83;;;3.33;;
56457;SDS011;42360;42.918;12.366;2022-11-13T15:09:00;3.60;;;2.85;;
56457;SDS011;42360;42.918;12.366;2022-11-13T15:11:25;3.33;;;2.70;;
56457;SDS011;42360;42.918;12.366;2022-11-13T15:13:51;3.83;;;2.95;;
56457;SDS011;42360;42.918;12.366;2022-11-13T15:16:19;4.82;;;3.15;;
56457;SDS011;42360;42.918;12.366;2022-11-13T15:21:22;4.35;;;3.80;;
56457;SDS011;42360;42.918;12.366;2022-11-13T15:23:47;3.80;;;3.15;;
56457;SDS011;42360;42.918;12.366;2022-11-13T15:26:13;3.13;;;2.78;;
56457;SDS011;42360;42.918;12.366;2022-11-13T15:28:38;3.60;;;2.88;;
56457;SDS011;42360;42.918;12.366;2022-11-13T15:31:20;5.28;;;4.10;;
56457;SDS011;42360;42.918;12.366;2022-11-13T15:33:48;9.55;;;6.50;;
56457;SDS011;42360;42.918;12.366;2022-11-13T15:36:14;6.20;;;4.32;;
56457;SDS011;42360;42.918;12.366;2022-11-13T15:38:40;10.38;;;8.25;;
56457;SDS011;42360;42.918;12.366;2022-11-13T15:41:07;6.07;;;4.32;;
56457;SDS011;42360;42.918;12.366;2022-11-13T15:43:36;4.40;;;4.00;;
56457;SDS011;42360;42.918;12.366;2022-11-13T15:46:02;4.65;;;3.70;;
56457;SDS011;42360;42.918;12.366;2022-11-13T15:48:27;4.38;;;3.03;;
56457;SDS011;42360;42.918;12.366;2022-11-13T15:50:53;3.80;;;2.90;;
56457;SDS011;42360;42.918;12.366;2022-11-13T15:53:19;3.83;;;2.88;;
56457;SDS011;42360;42.918;12.366;2022-11-13T15:55:44;4.63;;;3.28;;
56457;SDS011;42360;42.918;12.366;2022-11-13T15:58:13;4.78;;;3.15;;
56457;SDS011;42360;42.918;12.366;2022-11-13T16:00:40;4.22;;;3.00;;
56457;SDS011;42360;42.918;12.366;2022-11-13T16:03:07;3.75;;;3.30;;
56457;SDS011;42360;42.918;12.366;2022-11-13T16:05:35;3.95;;;3.20;;
56457;SDS011;42360;42.918;12.366;2022-11-13T16:08:06;3.50;;;3.20;;
56457;SDS011;42360;42.918;12.366;2022-11-13T16:10:38;7.90;;;4.00;;
56457;SDS011;42360;42.918;12.366;2022-11-13T16:13:03;6.30;;;3.90;;
56457;SDS011;42360;42.918;12.366;2022-11-13T16:15:29;8.80;;;5.07;;
56457;SDS011;42360;42.918;12.366;2022-11-13T16:17:55;6.07;;;4.20;;
56457;SDS011;42360;42.918;12.366;2022-11-13T16:20:21;8.80;;;6.10;;
56457;SDS011;42360;42.918;12.366;2022-11-13T16:22:47;4.43;;;3.63;;
56457;SDS011;42360;42.918;12.366;2022-11-13T16:25:13;5.50;;;4.00;;
56457;SDS011;42360;42.918;12.366;2022-11-13T16:27:41;4.32;;;3.33;;
56457;SDS011;42360;42.918;12.366;2022-11-13T16:30:14;4.78;;;3.80;;
56457;SDS011;42360;42.918;12.366;2022-11-13T16:32:41;5.32;;;3.80;;